sensor_id;sensor_type;location;lat;lon;timestamp;P1;durP1;ratioP1;P2;durP2;ratioP2
10059;SDS011;5069;49.306;8.636;2023-07-28T00:02:50;3.13;;;2.87;;
10059;SDS011;5069;49.306;8.636;2023-07-28T00:05:52;3.90;;;3.13;;
10059;SDS011;5069;49.306;8.636;2023-07-28T00:08:53;3.50;;;3.20;;
10059;SDS011;5069;49.306;8.636;2023-07-28T00:11:58;3.77;;;3.10;;
10059;SDS011;5069;49.306;8.636;2023-07-28T00:15:00;3.73;;;2.80;;
10059;SDS011;5069;49.306;8.636;2023-07-28T00:18:02;3.43;;;3.00;;
10059;SDS011;5069;49.306;8.636;2023-07-28T00:21:04;5.73;;;3.00;;
10059;SDS011;5069;49.306;8.636;2023-07-28T00:24:06;5.60;;;3.50;;
10059;SDS011;5069;49.306;8.636;2023-07-28T00:27:08;3.30;;;3.00;;
10059;SDS011;5069;49.306;8.636;2023-07-28T00:30:09;7.10;;;3.40;;
10059;SDS011;5069;49.306;8.636;2023-07-28T00:33:12;3.70;;;3.10;;
10059;SDS011;5069;49.306;8.636;2023-07-28T00:36:13;4.77;;;3.20;;
10059;SDS011;5069;49.306;8.636;2023-07-28T00:39:15;6.53;;;3.30;;
10059;SDS011;5069;49.306;8.636;2023-07-28T00:42:16;3.90;;;3.40;;
10059;SDS011;5069;49.306;8.636;2023-07-28T00:45:18;5.40;;;3.07;;
10059;SDS011;5069;49.306;8.636;2023-07-28T00:48:19;5.40;;;3.30;;
10059;SDS011;5069;49.306;8.636;2023-07-28T00:51:21;3.97;;;3.57;;
10059;SDS011;5069;49.306;8.636;2023-07-28T00:54:23;6.87;;;3.50;;
10059;SDS011;5069;49.306;8.636;2023-07-28T00:57:24;3.47;;;3.17;;
10059;SDS011;5069;49.306;8.636;2023-07-28T01:00:26;4.43;;;3.37;;
10059;SDS011;5069;49.306;8.636;2023-07-28T01:03:27;6.67;;;3.60;;
10059;SDS011;5069;49.306;8.636;2023-07-28T01:06:39;4.07;;;3.20;;
10059;SDS011;5069;49.306;8.636;2023-07-28T01:09:52;4.27;;;3.73;;
10059;SDS011;5069;49.306;8.636;2023-07-28T01:12:56;3.87;;;3.13;;
10059;SDS011;5069;49.306;8.636;2023-07-28T01:15:58;4.60;;;3.60;;
10059;SDS011;5069;49.306;8.636;2023-07-28T01:19:02;4.53;;;3.57;;
10059;SDS011;5069;49.306;8.636;2023-07-28T01:28:44;4.93;;;3.73;;
10059;SDS011;5069;49.306;8.636;2023-07-28T01:31:46;7.23;;;4.40;;
10059;SDS011;5069;49.306;8.636;2023-07-28T01:34:48;9.17;;;3.47;;
10059;SDS011;5069;49.306;8.636;2023-07-28T01:37:50;5.23;;;3.53;;
10059;SDS011;5069;49.306;8.636;2023-07-28T01:40:52;6.67;;;3.40;;
10059;SDS011;5069;49.306;8.636;2023-07-28T01:43:53;4.43;;;3.43;;
10059;SDS011;5069;49.306;8.636;2023-07-28T01:46:57;4.50;;;3.00;;
10059;SDS011;5069;49.306;8.636;2023-07-28T01:49:58;7.40;;;3.70;;
10059;SDS011;5069;49.306;8.636;2023-07-28T01:53:00;4.13;;;3.50;;
10059;SDS011;5069;49.306;8.636;2023-07-28T01:56:01;5.97;;;3.67;;
10059;SDS011;5069;49.306;8.636;2023-07-28T01:59:03;3.57;;;3.27;;
10059;SDS011;5069;49.306;8.636;2023-07-28T02:02:06;7.90;;;3.80;;
10059;SDS011;5069;49.306;8.636;2023-07-28T02:05:08;3.73;;;3.23;;
10059;SDS011;5069;49.306;8.636;2023-07-28T02:08:10;5.23;;;3.20;;
10059;SDS011;5069;49.306;8.636;2023-07-28T02:11:11;5.63;;;3.60;;
10059;SDS011;5069;49.306;8.636;2023-07-28T02:14:13;3.10;;;2.80;;
10059;SDS011;5069;49.306;8.636;2023-07-28T02:17:14;5.07;;;3.30;;
10059;SDS011;5069;49.306;8.636;2023-07-28T02:20:16;6.13;;;3.77;;
10059;SDS011;5069;49.306;8.636;2023-07-28T02:23:17;4.60;;;3.50;;
10059;SDS011;5069;49.306;8.636;2023-07-28T02:26:19;4.80;;;3.20;;
10059;SDS011;5069;49.306;8.636;2023-07-28T02:29:20;4.87;;;3.33;;
10059;SDS011;5069;49.306;8.636;2023-07-28T02:32:22;8.30;;;3.57;;
10059;SDS011;5069;49.306;8.636;2023-07-28T02:35:23;6.13;;;3.70;;
10059;SDS011;5069;49.306;8.636;2023-07-28T02:38:25;5.07;;;3.37;;
10059;SDS011;5069;49.306;8.636;2023-07-28T02:41:26;3.20;;;2.90;;
10059;SDS011;5069;49.306;8.636;2023-07-28T02:44:28;3.73;;;2.87;;
10059;SDS011;5069;49.306;8.636;2023-07-28T02:47:30;3.93;;;2.87;;
10059;SDS011;5069;49.306;8.636;2023-07-28T02:50:32;3.97;;;2.60;;
10059;SDS011;5069;49.306;8.636;2023-07-28T02:53:34;5.70;;;3.23;;
10059;SDS011;5069;49.306;8.636;2023-07-28T02:56:36;5.83;;;3.20;;
10059;SDS011;5069;49.306;8.636;2023-07-28T02:59:43;4.07;;;2.70;;
10059;SDS011;5069;49.306;8.636;2023-07-28T03:02:45;7.10;;;3.07;;
10059;SDS011;5069;49.306;8.636;2023-07-28T03:05:47;5.87;;;3.00;;
10059;SDS011;5069;49.306;8.636;2023-07-28T03:09:00;3.93;;;2.97;;
10059;SDS011;5069;49.306;8.636;2023-07-28T03:12:18;3.70;;;2.97;;
10059;SDS011;5069;49.306;8.636;2023-07-28T03:15:20;3.43;;;2.80;;
10059;SDS011;5069;49.306;8.636;2023-07-28T03:18:23;3.27;;;2.97;;
10059;SDS011;5069;49.306;8.636;2023-07-28T03:21:24;3.17;;;2.83;;
10059;SDS011;5069;49.306;8.636;2023-07-28T03:24:26;3.17;;;2.60;;
10059;SDS011;5069;49.306;8.636;2023-07-28T03:27:27;2.63;;;2.43;;
10059;SDS011;5069;49.306;8.636;2023-07-28T03:30:29;2.60;;;2.33;;
10059;SDS011;5069;49.306;8.636;2023-07-28T03:33:30;3.00;;;2.70;;
10059;SDS011;5069;49.306;8.636;2023-07-28T03:36:32;3.70;;;3.07;;
10059;SDS011;5069;49.306;8.636;2023-07-28T03:39:34;4.90;;;3.07;;
10059;SDS011;5069;49.306;8.636;2023-07-28T03:42:36;2.87;;;2.60;;
10059;SDS011;5069;49.306;8.636;2023-07-28T03:45:37;3.73;;;2.53;;
10059;SDS011;5069;49.306;8.636;2023-07-28T03:48:39;4.10;;;2.50;;
10059;SDS011;5069;49.306;8.636;2023-07-28T03:51:41;4.57;;;2.80;;
10059;SDS011;5069;49.306;8.636;2023-07-28T03:54:42;3.53;;;2.57;;
10059;SDS011;5069;49.306;8.636;2023-07-28T03:57:44;2.60;;;2.40;;
10059;SDS011;5069;49.306;8.636;2023-07-28T04:00:46;4.83;;;2.73;;
10059;SDS011;5069;49.306;8.636;2023-07-28T04:03:47;4.13;;;2.77;;
10059;SDS011;5069;49.306;8.636;2023-07-28T04:06:49;2.47;;;2.27;;
10059;SDS011;5069;49.306;8.636;2023-07-28T04:09:51;10.30;;;2.73;;
10059;SDS011;5069;49.306;8.636;2023-07-28T04:12:53;6.00;;;2.60;;
10059;SDS011;5069;49.306;8.636;2023-07-28T04:15:54;3.57;;;2.40;;
10059;SDS011;5069;49.306;8.636;2023-07-28T04:18:56;5.40;;;3.00;;
10059;SDS011;5069;49.306;8.636;2023-07-28T04:21:59;5.80;;;3.00;;
10059;SDS011;5069;49.306;8.636;2023-07-28T04:25:04;5.20;;;3.00;;
10059;SDS011;5069;49.306;8.636;2023-07-28T04:28:07;4.27;;;2.60;;
10059;SDS011;5069;49.306;8.636;2023-07-28T04:31:09;6.10;;;3.10;;
10059;SDS011;5069;49.306;8.636;2023-07-28T04:34:41;4.07;;;2.53;;
10059;SDS011;5069;49.306;8.636;2023-07-28T04:37:48;4.83;;;2.90;;
10059;SDS011;5069;49.306;8.636;2023-07-28T04:40:58;6.20;;;2.90;;
10059;SDS011;5069;49.306;8.636;2023-07-28T04:44:19;6.83;;;4.80;;
10059;SDS011;5069;49.306;8.636;2023-07-28T04:47:22;4.93;;;4.13;;
10059;SDS011;5069;49.306;8.636;2023-07-28T04:50:24;4.43;;;3.70;;
10059;SDS011;5069;49.306;8.636;2023-07-28T04:53:51;5.20;;;2.83;;
10059;SDS011;5069;49.306;8.636;2023-07-28T04:56:56;3.87;;;2.53;;
10059;SDS011;5069;49.306;8.636;2023-07-28T05:00:04;3.50;;;2.90;;
10059;SDS011;5069;49.306;8.636;2023-07-28T05:03:06;6.10;;;2.50;;
10059;SDS011;5069;49.306;8.636;2023-07-28T05:06:12;2.80;;;2.33;;
10059;SDS011;5069;49.306;8.636;2023-07-28T05:09:14;3.73;;;2.63;;
10059;SDS011;5069;49.306;8.636;2023-07-28T05:12:16;2.20;;;1.80;;
10059;SDS011;5069;49.306;8.636;2023-07-28T05:15:20;2.47;;;2.27;;
10059;SDS011;5069;49.306;8.636;2023-07-28T05:18:22;2.80;;;2.20;;
10059;SDS011;5069;49.306;8.636;2023-07-28T05:21:35;3.37;;;2.40;;
10059;SDS011;5069;49.306;8.636;2023-07-28T05:24:37;2.57;;;2.20;;
10059;SDS011;5069;49.306;8.636;2023-07-28T05:27:39;3.53;;;2.30;;
10059;SDS011;5069;49.306;8.636;2023-07-28T05:30:41;2.73;;;2.00;;
10059;SDS011;5069;49.306;8.636;2023-07-28T05:33:42;3.27;;;1.93;;
10059;SDS011;5069;49.306;8.636;2023-07-28T05:36:44;3.03;;;2.43;;
10059;SDS011;5069;49.306;8.636;2023-07-28T05:39:46;2.67;;;2.40;;
10059;SDS011;5069;49.306;8.636;2023-07-28T05:42:47;3.33;;;2.50;;
10059;SDS011;5069;49.306;8.636;2023-07-28T05:45:49;4.40;;;2.40;;
10059;SDS011;5069;49.306;8.636;2023-07-28T05:48:53;4.23;;;2.73;;
10059;SDS011;5069;49.306;8.636;2023-07-28T05:51:56;4.50;;;2.97;;
10059;SDS011;5069;49.306;8.636;2023-07-28T05:54:57;8.70;;;3.43;;
10059;SDS011;5069;49.306;8.636;2023-07-28T05:58:00;3.63;;;3.10;;
10059;SDS011;5069;49.306;8.636;2023-07-28T06:01:01;4.33;;;3.93;;
10059;SDS011;5069;49.306;8.636;2023-07-28T06:04:22;4.93;;;3.93;;
10059;SDS011;5069;49.306;8.636;2023-07-28T06:07:30;5.03;;;3.83;;
10059;SDS011;5069;49.306;8.636;2023-07-28T06:10:31;4.23;;;3.83;;
10059;SDS011;5069;49.306;8.636;2023-07-28T06:13:33;5.03;;;3.80;;
10059;SDS011;5069;49.306;8.636;2023-07-28T06:16:36;5.83;;;3.40;;
10059;SDS011;5069;49.306;8.636;2023-07-28T06:19:38;5.43;;;3.53;;
10059;SDS011;5069;49.306;8.636;2023-07-28T06:22:39;5.53;;;3.20;;
10059;SDS011;5069;49.306;8.636;2023-07-28T06:25:41;4.80;;;3.40;;
10059;SDS011;5069;49.306;8.636;2023-07-28T06:28:47;4.43;;;3.17;;
10059;SDS011;5069;49.306;8.636;2023-07-28T06:31:48;4.13;;;3.73;;
10059;SDS011;5069;49.306;8.636;2023-07-28T06:34:50;7.27;;;3.30;;
10059;SDS011;5069;49.306;8.636;2023-07-28T06:37:53;4.93;;;3.00;;
10059;SDS011;5069;49.306;8.636;2023-07-28T06:40:54;4.03;;;2.90;;
10059;SDS011;5069;49.306;8.636;2023-07-28T06:43:56;4.73;;;2.73;;
10059;SDS011;5069;49.306;8.636;2023-07-28T06:46:59;2.60;;;2.40;;
10059;SDS011;5069;49.306;8.636;2023-07-28T06:50:01;6.37;;;2.40;;
10059;SDS011;5069;49.306;8.636;2023-07-28T06:53:02;2.83;;;2.30;;
10059;SDS011;5069;49.306;8.636;2023-07-28T06:56:04;5.40;;;2.43;;
10059;SDS011;5069;49.306;8.636;2023-07-28T06:59:06;3.30;;;2.43;;
10059;SDS011;5069;49.306;8.636;2023-07-28T07:02:18;3.90;;;2.40;;
10059;SDS011;5069;49.306;8.636;2023-07-28T07:05:19;3.23;;;2.53;;
10059;SDS011;5069;49.306;8.636;2023-07-28T07:08:21;5.47;;;2.63;;
10059;SDS011;5069;49.306;8.636;2023-07-28T07:11:22;4.30;;;2.10;;
10059;SDS011;5069;49.306;8.636;2023-07-28T07:14:24;4.57;;;2.40;;
10059;SDS011;5069;49.306;8.636;2023-07-28T07:17:26;3.73;;;2.50;;
10059;SDS011;5069;49.306;8.636;2023-07-28T07:20:27;3.37;;;2.30;;
10059;SDS011;5069;49.306;8.636;2023-07-28T07:23:29;3.53;;;2.30;;
10059;SDS011;5069;49.306;8.636;2023-07-28T07:26:30;3.20;;;2.17;;
10059;SDS011;5069;49.306;8.636;2023-07-28T07:29:33;3.13;;;2.00;;
10059;SDS011;5069;49.306;8.636;2023-07-28T07:32:34;3.80;;;2.10;;
10059;SDS011;5069;49.306;8.636;2023-07-28T07:35:36;2.57;;;2.33;;
10059;SDS011;5069;49.306;8.636;2023-07-28T07:38:39;3.57;;;2.20;;
10059;SDS011;5069;49.306;8.636;2023-07-28T07:41:42;2.80;;;2.40;;
10059;SDS011;5069;49.306;8.636;2023-07-28T07:44:43;2.20;;;2.00;;
10059;SDS011;5069;49.306;8.636;2023-07-28T07:47:45;3.53;;;2.23;;
10059;SDS011;5069;49.306;8.636;2023-07-28T07:50:46;3.50;;;2.20;;
10059;SDS011;5069;49.306;8.636;2023-07-28T07:53:48;2.57;;;2.00;;
10059;SDS011;5069;49.306;8.636;2023-07-28T07:56:49;2.10;;;1.90;;
10059;SDS011;5069;49.306;8.636;2023-07-28T07:59:51;2.00;;;1.80;;
10059;SDS011;5069;49.306;8.636;2023-07-28T08:02:52;2.50;;;2.30;;
10059;SDS011;5069;49.306;8.636;2023-07-28T08:05:54;3.03;;;1.80;;
10059;SDS011;5069;49.306;8.636;2023-07-28T08:08:55;3.03;;;1.90;;
10059;SDS011;5069;49.306;8.636;2023-07-28T08:11:59;3.47;;;2.00;;
10059;SDS011;5069;49.306;8.636;2023-07-28T08:15:01;2.43;;;2.00;;
10059;SDS011;5069;49.306;8.636;2023-07-28T08:18:02;2.20;;;2.00;;
10059;SDS011;5069;49.306;8.636;2023-07-28T08:21:04;2.30;;;2.10;;
10059;SDS011;5069;49.306;8.636;2023-07-28T08:24:06;2.03;;;1.93;;
10059;SDS011;5069;49.306;8.636;2023-07-28T08:27:07;2.50;;;2.30;;
10059;SDS011;5069;49.306;8.636;2023-07-28T08:30:09;1.90;;;1.70;;
10059;SDS011;5069;49.306;8.636;2023-07-28T08:33:11;2.40;;;2.20;;
10059;SDS011;5069;49.306;8.636;2023-07-28T08:36:13;2.30;;;1.97;;
10059;SDS011;5069;49.306;8.636;2023-07-28T08:39:15;4.27;;;2.33;;
10059;SDS011;5069;49.306;8.636;2023-07-28T08:42:20;3.20;;;2.10;;
10059;SDS011;5069;49.306;8.636;2023-07-28T08:45:22;2.40;;;2.20;;
10059;SDS011;5069;49.306;8.636;2023-07-28T08:48:25;4.77;;;2.17;;
10059;SDS011;5069;49.306;8.636;2023-07-28T08:51:27;2.20;;;2.00;;
10059;SDS011;5069;49.306;8.636;2023-07-28T08:54:28;3.30;;;2.53;;
10059;SDS011;5069;49.306;8.636;2023-07-28T08:57:30;3.50;;;2.50;;
10059;SDS011;5069;49.306;8.636;2023-07-28T09:00:31;2.27;;;2.07;;
10059;SDS011;5069;49.306;8.636;2023-07-28T09:03:33;3.33;;;2.30;;
10059;SDS011;5069;49.306;8.636;2023-07-28T09:06:45;4.50;;;1.70;;
10059;SDS011;5069;49.306;8.636;2023-07-28T09:09:47;2.40;;;1.80;;
10059;SDS011;5069;49.306;8.636;2023-07-28T09:12:49;5.13;;;2.10;;
10059;SDS011;5069;49.306;8.636;2023-07-28T09:15:52;2.53;;;2.00;;
10059;SDS011;5069;49.306;8.636;2023-07-28T09:19:06;1.90;;;1.80;;
10059;SDS011;5069;49.306;8.636;2023-07-28T09:22:08;2.67;;;2.40;;
10059;SDS011;5069;49.306;8.636;2023-07-28T09:25:11;2.17;;;2.00;;
10059;SDS011;5069;49.306;8.636;2023-07-28T09:28:14;2.57;;;2.10;;
10059;SDS011;5069;49.306;8.636;2023-07-28T09:31:16;2.10;;;1.90;;
10059;SDS011;5069;49.306;8.636;2023-07-28T09:34:29;2.57;;;1.83;;
10059;SDS011;5069;49.306;8.636;2023-07-28T09:37:31;4.20;;;1.70;;
10059;SDS011;5069;49.306;8.636;2023-07-28T09:40:33;2.40;;;1.80;;
10059;SDS011;5069;49.306;8.636;2023-07-28T09:43:35;2.00;;;1.80;;
10059;SDS011;5069;49.306;8.636;2023-07-28T09:46:37;3.13;;;1.93;;
10059;SDS011;5069;49.306;8.636;2023-07-28T09:49:54;2.47;;;1.70;;
10059;SDS011;5069;49.306;8.636;2023-07-28T09:53:01;2.00;;;1.80;;
10059;SDS011;5069;49.306;8.636;2023-07-28T09:56:04;4.33;;;1.90;;
10059;SDS011;5069;49.306;8.636;2023-07-28T09:59:08;2.00;;;1.70;;
10059;SDS011;5069;49.306;8.636;2023-07-28T10:02:13;2.20;;;2.00;;
10059;SDS011;5069;49.306;8.636;2023-07-28T10:05:16;2.40;;;1.93;;
10059;SDS011;5069;49.306;8.636;2023-07-28T10:08:17;3.80;;;2.00;;
10059;SDS011;5069;49.306;8.636;2023-07-28T10:11:19;2.17;;;2.00;;
10059;SDS011;5069;49.306;8.636;2023-07-28T10:14:29;2.20;;;1.80;;
10059;SDS011;5069;49.306;8.636;2023-07-28T10:17:59;2.13;;;1.97;;
10059;SDS011;5069;49.306;8.636;2023-07-28T10:21:05;2.37;;;2.00;;
10059;SDS011;5069;49.306;8.636;2023-07-28T10:24:09;2.20;;;2.00;;
10059;SDS011;5069;49.306;8.636;2023-07-28T10:27:10;2.00;;;1.87;;
10059;SDS011;5069;49.306;8.636;2023-07-28T10:30:12;2.10;;;2.00;;
10059;SDS011;5069;49.306;8.636;2023-07-28T10:33:26;2.67;;;1.87;;
10059;SDS011;5069;49.306;8.636;2023-07-28T10:39:30;2.57;;;2.00;;
10059;SDS011;5069;49.306;8.636;2023-07-28T10:42:37;1.90;;;1.80;;
10059;SDS011;5069;49.306;8.636;2023-07-28T10:45:39;4.30;;;2.10;;
10059;SDS011;5069;49.306;8.636;2023-07-28T10:48:44;2.43;;;1.80;;
10059;SDS011;5069;49.306;8.636;2023-07-28T10:51:47;2.03;;;1.77;;
10059;SDS011;5069;49.306;8.636;2023-07-28T10:54:49;3.93;;;1.80;;
10059;SDS011;5069;49.306;8.636;2023-07-28T10:57:52;2.30;;;1.83;;
10059;SDS011;5069;49.306;8.636;2023-07-28T11:00:54;2.30;;;1.57;;
10059;SDS011;5069;49.306;8.636;2023-07-28T11:03:56;2.70;;;1.90;;
10059;SDS011;5069;49.306;8.636;2023-07-28T11:06:57;2.10;;;1.80;;
10059;SDS011;5069;49.306;8.636;2023-07-28T11:10:00;2.53;;;2.00;;
10059;SDS011;5069;49.306;8.636;2023-07-28T11:13:04;2.30;;;1.87;;
10059;SDS011;5069;49.306;8.636;2023-07-28T11:16:27;2.57;;;2.00;;
10059;SDS011;5069;49.306;8.636;2023-07-28T11:19:28;1.83;;;1.73;;
10059;SDS011;5069;49.306;8.636;2023-07-28T11:22:30;2.07;;;1.60;;
10059;SDS011;5069;49.306;8.636;2023-07-28T11:25:33;3.20;;;2.10;;
10059;SDS011;5069;49.306;8.636;2023-07-28T11:28:34;2.43;;;1.97;;
10059;SDS011;5069;49.306;8.636;2023-07-28T11:31:36;2.83;;;1.90;;
10059;SDS011;5069;49.306;8.636;2023-07-28T11:34:37;2.97;;;1.87;;
10059;SDS011;5069;49.306;8.636;2023-07-28T11:37:40;5.63;;;1.80;;
10059;SDS011;5069;49.306;8.636;2023-07-28T11:40:43;1.60;;;1.50;;
10059;SDS011;5069;49.306;8.636;2023-07-28T11:43:44;1.73;;;1.63;;
10059;SDS011;5069;49.306;8.636;2023-07-28T11:46:49;2.00;;;1.80;;
10059;SDS011;5069;49.306;8.636;2023-07-28T11:49:54;3.50;;;1.87;;
10059;SDS011;5069;49.306;8.636;2023-07-28T11:52:59;2.07;;;1.70;;
10059;SDS011;5069;49.306;8.636;2023-07-28T11:56:01;2.00;;;1.73;;
10059;SDS011;5069;49.306;8.636;2023-07-28T11:59:03;1.77;;;1.43;;
10059;SDS011;5069;49.306;8.636;2023-07-28T12:02:06;2.97;;;1.60;;
10059;SDS011;5069;49.306;8.636;2023-07-28T12:05:14;2.60;;;1.63;;
10059;SDS011;5069;49.306;8.636;2023-07-28T12:08:34;2.20;;;1.63;;
10059;SDS011;5069;49.306;8.636;2023-07-28T12:11:42;3.10;;;1.57;;
10059;SDS011;5069;49.306;8.636;2023-07-28T12:14:47;3.40;;;1.60;;
10059;SDS011;5069;49.306;8.636;2023-07-28T12:18:04;1.70;;;1.60;;
10059;SDS011;5069;49.306;8.636;2023-07-28T12:21:19;1.93;;;1.57;;
10059;SDS011;5069;49.306;8.636;2023-07-28T12:24:21;2.43;;;1.67;;
10059;SDS011;5069;49.306;8.636;2023-07-28T12:27:22;2.80;;;1.60;;
10059;SDS011;5069;49.306;8.636;2023-07-28T12:30:33;2.07;;;1.57;;
10059;SDS011;5069;49.306;8.636;2023-07-28T12:33:35;3.17;;;1.70;;
10059;SDS011;5069;49.306;8.636;2023-07-28T12:36:40;1.73;;;1.53;;
10059;SDS011;5069;49.306;8.636;2023-07-28T12:39:44;5.97;;;1.80;;
10059;SDS011;5069;49.306;8.636;2023-07-28T12:42:49;3.57;;;1.87;;
10059;SDS011;5069;49.306;8.636;2023-07-28T12:45:53;3.57;;;2.10;;
10059;SDS011;5069;49.306;8.636;2023-07-28T12:48:57;4.63;;;1.80;;
10059;SDS011;5069;49.306;8.636;2023-07-28T12:52:00;2.67;;;2.13;;
10059;SDS011;5069;49.306;8.636;2023-07-28T12:55:02;3.27;;;2.10;;
10059;SDS011;5069;49.306;8.636;2023-07-28T12:58:07;3.87;;;2.40;;
10059;SDS011;5069;49.306;8.636;2023-07-28T13:01:29;4.80;;;2.40;;
10059;SDS011;5069;49.306;8.636;2023-07-28T13:04:30;2.93;;;2.30;;
10059;SDS011;5069;49.306;8.636;2023-07-28T13:07:32;2.50;;;2.30;;
10059;SDS011;5069;49.306;8.636;2023-07-28T13:10:36;3.70;;;2.33;;
10059;SDS011;5069;49.306;8.636;2023-07-28T13:13:41;2.60;;;2.40;;
10059;SDS011;5069;49.306;8.636;2023-07-28T13:16:42;3.70;;;2.63;;
10059;SDS011;5069;49.306;8.636;2023-07-28T13:19:45;3.03;;;2.47;;
10059;SDS011;5069;49.306;8.636;2023-07-28T13:22:47;2.77;;;2.30;;
10059;SDS011;5069;49.306;8.636;2023-07-28T13:25:48;3.50;;;2.60;;
10059;SDS011;5069;49.306;8.636;2023-07-28T13:28:50;5.50;;;2.53;;
10059;SDS011;5069;49.306;8.636;2023-07-28T13:31:51;3.87;;;2.60;;
10059;SDS011;5069;49.306;8.636;2023-07-28T13:34:53;4.87;;;2.97;;
10059;SDS011;5069;49.306;8.636;2023-07-28T13:37:54;3.13;;;2.67;;
10059;SDS011;5069;49.306;8.636;2023-07-28T13:40:56;2.60;;;2.40;;
10059;SDS011;5069;49.306;8.636;2023-07-28T13:43:58;4.23;;;2.50;;
10059;SDS011;5069;49.306;8.636;2023-07-28T13:47:03;3.67;;;2.33;;
10059;SDS011;5069;49.306;8.636;2023-07-28T13:50:05;4.43;;;2.50;;
10059;SDS011;5069;49.306;8.636;2023-07-28T13:53:08;2.87;;;2.10;;
10059;SDS011;5069;49.306;8.636;2023-07-28T13:56:14;2.40;;;2.13;;
10059;SDS011;5069;49.306;8.636;2023-07-28T13:59:18;2.83;;;2.20;;
10059;SDS011;5069;49.306;8.636;2023-07-28T14:02:20;4.17;;;2.47;;
10059;SDS011;5069;49.306;8.636;2023-07-28T14:05:21;2.77;;;2.13;;
10059;SDS011;5069;49.306;8.636;2023-07-28T14:08:24;2.30;;;2.10;;
10059;SDS011;5069;49.306;8.636;2023-07-28T14:11:25;2.43;;;2.13;;
10059;SDS011;5069;49.306;8.636;2023-07-28T14:14:27;2.93;;;2.40;;
10059;SDS011;5069;49.306;8.636;2023-07-28T14:17:28;3.13;;;2.40;;
10059;SDS011;5069;49.306;8.636;2023-07-28T14:20:30;2.40;;;2.20;;
10059;SDS011;5069;49.306;8.636;2023-07-28T14:23:31;4.90;;;2.40;;
10059;SDS011;5069;49.306;8.636;2023-07-28T14:26:32;4.77;;;2.30;;
10059;SDS011;5069;49.306;8.636;2023-07-28T14:29:34;2.93;;;2.50;;
10059;SDS011;5069;49.306;8.636;2023-07-28T14:32:36;2.70;;;2.10;;
10059;SDS011;5069;49.306;8.636;2023-07-28T14:35:37;3.17;;;2.30;;
10059;SDS011;5069;49.306;8.636;2023-07-28T14:38:39;4.23;;;2.50;;
10059;SDS011;5069;49.306;8.636;2023-07-28T14:41:40;2.70;;;2.23;;
10059;SDS011;5069;49.306;8.636;2023-07-28T14:44:42;3.10;;;2.33;;
10059;SDS011;5069;49.306;8.636;2023-07-28T14:47:43;3.23;;;2.53;;
10059;SDS011;5069;49.306;8.636;2023-07-28T14:50:45;3.77;;;2.53;;
10059;SDS011;5069;49.306;8.636;2023-07-28T14:53:47;4.47;;;2.77;;
10059;SDS011;5069;49.306;8.636;2023-07-28T14:56:48;3.20;;;2.53;;
10059;SDS011;5069;49.306;8.636;2023-07-28T14:59:50;3.60;;;2.70;;
10059;SDS011;5069;49.306;8.636;2023-07-28T15:02:51;4.27;;;2.43;;
10059;SDS011;5069;49.306;8.636;2023-07-28T15:05:56;3.40;;;2.50;;
10059;SDS011;5069;49.306;8.636;2023-07-28T15:08:58;3.47;;;2.30;;
10059;SDS011;5069;49.306;8.636;2023-07-28T15:11:59;3.47;;;2.57;;
10059;SDS011;5069;49.306;8.636;2023-07-28T15:15:01;4.27;;;2.47;;
10059;SDS011;5069;49.306;8.636;2023-07-28T15:18:02;5.20;;;2.47;;
10059;SDS011;5069;49.306;8.636;2023-07-28T15:21:04;8.27;;;2.80;;
10059;SDS011;5069;49.306;8.636;2023-07-28T15:24:05;3.83;;;2.70;;
10059;SDS011;5069;49.306;8.636;2023-07-28T15:27:07;4.77;;;2.47;;
10059;SDS011;5069;49.306;8.636;2023-07-28T15:30:09;3.43;;;2.67;;
10059;SDS011;5069;49.306;8.636;2023-07-28T15:33:11;4.30;;;2.70;;
10059;SDS011;5069;49.306;8.636;2023-07-28T15:36:12;3.27;;;2.40;;
10059;SDS011;5069;49.306;8.636;2023-07-28T15:39:14;2.63;;;2.43;;
10059;SDS011;5069;49.306;8.636;2023-07-28T15:42:15;3.33;;;2.70;;
10059;SDS011;5069;49.306;8.636;2023-07-28T15:45:19;4.53;;;2.53;;
10059;SDS011;5069;49.306;8.636;2023-07-28T15:48:20;2.67;;;2.40;;
10059;SDS011;5069;49.306;8.636;2023-07-28T15:51:22;3.87;;;2.80;;
10059;SDS011;5069;49.306;8.636;2023-07-28T15:54:24;5.80;;;2.60;;
10059;SDS011;5069;49.306;8.636;2023-07-28T15:57:25;2.60;;;2.40;;
10059;SDS011;5069;49.306;8.636;2023-07-28T16:00:26;3.80;;;3.00;;
10059;SDS011;5069;49.306;8.636;2023-07-28T16:03:28;4.27;;;2.60;;
10059;SDS011;5069;49.306;8.636;2023-07-28T16:06:31;4.27;;;2.90;;
10059;SDS011;5069;49.306;8.636;2023-07-28T16:09:32;3.97;;;2.80;;
10059;SDS011;5069;49.306;8.636;2023-07-28T16:12:34;3.87;;;3.00;;
10059;SDS011;5069;49.306;8.636;2023-07-28T16:15:36;3.20;;;2.80;;
10059;SDS011;5069;49.306;8.636;2023-07-28T16:18:37;4.03;;;2.63;;
10059;SDS011;5069;49.306;8.636;2023-07-28T16:21:39;3.37;;;2.87;;
10059;SDS011;5069;49.306;8.636;2023-07-28T16:24:40;3.27;;;2.90;;
10059;SDS011;5069;49.306;8.636;2023-07-28T16:27:42;2.97;;;2.67;;
10059;SDS011;5069;49.306;8.636;2023-07-28T16:30:43;3.77;;;2.70;;
10059;SDS011;5069;49.306;8.636;2023-07-28T16:33:47;3.07;;;2.70;;
10059;SDS011;5069;49.306;8.636;2023-07-28T16:36:49;3.00;;;2.80;;
10059;SDS011;5069;49.306;8.636;2023-07-28T16:39:50;3.13;;;2.83;;
10059;SDS011;5069;49.306;8.636;2023-07-28T16:42:52;3.83;;;3.20;;
10059;SDS011;5069;49.306;8.636;2023-07-28T16:45:54;2.67;;;2.47;;
10059;SDS011;5069;49.306;8.636;2023-07-28T16:48:55;5.03;;;3.23;;
10059;SDS011;5069;49.306;8.636;2023-07-28T16:51:57;4.73;;;2.83;;
10059;SDS011;5069;49.306;8.636;2023-07-28T16:54:58;4.43;;;3.07;;
10059;SDS011;5069;49.306;8.636;2023-07-28T16:58:00;4.33;;;3.13;;
10059;SDS011;5069;49.306;8.636;2023-07-28T17:01:01;4.37;;;3.00;;
10059;SDS011;5069;49.306;8.636;2023-07-28T17:04:03;5.03;;;2.67;;
10059;SDS011;5069;49.306;8.636;2023-07-28T17:07:04;4.17;;;3.13;;
10059;SDS011;5069;49.306;8.636;2023-07-28T17:10:06;5.83;;;3.27;;
10059;SDS011;5069;49.306;8.636;2023-07-28T17:13:08;3.40;;;3.10;;
10059;SDS011;5069;49.306;8.636;2023-07-28T17:16:09;3.40;;;2.80;;
10059;SDS011;5069;49.306;8.636;2023-07-28T17:19:11;3.50;;;2.90;;
10059;SDS011;5069;49.306;8.636;2023-07-28T17:22:13;6.20;;;3.20;;
10059;SDS011;5069;49.306;8.636;2023-07-28T17:25:15;3.27;;;2.80;;
10059;SDS011;5069;49.306;8.636;2023-07-28T17:28:17;3.10;;;2.80;;
10059;SDS011;5069;49.306;8.636;2023-07-28T17:31:18;4.47;;;2.90;;
10059;SDS011;5069;49.306;8.636;2023-07-28T17:34:20;4.57;;;3.77;;
10059;SDS011;5069;49.306;8.636;2023-07-28T17:37:22;8.30;;;3.80;;
10059;SDS011;5069;49.306;8.636;2023-07-28T17:40:24;3.07;;;2.77;;
10059;SDS011;5069;49.306;8.636;2023-07-28T17:43:25;3.70;;;3.17;;
10059;SDS011;5069;49.306;8.636;2023-07-28T17:46:27;3.20;;;2.60;;
10059;SDS011;5069;49.306;8.636;2023-07-28T17:49:28;3.50;;;3.20;;
10059;SDS011;5069;49.306;8.636;2023-07-28T17:52:30;3.83;;;2.80;;
10059;SDS011;5069;49.306;8.636;2023-07-28T17:55:31;2.90;;;2.60;;
10059;SDS011;5069;49.306;8.636;2023-07-28T17:58:33;3.83;;;2.63;;
10059;SDS011;5069;49.306;8.636;2023-07-28T18:01:35;3.80;;;2.70;;
10059;SDS011;5069;49.306;8.636;2023-07-28T18:04:37;4.85;;;2.90;;
10059;SDS011;5069;49.306;8.636;2023-07-28T18:07:38;4.30;;;2.77;;
10059;SDS011;5069;49.306;8.636;2023-07-28T18:10:40;3.17;;;2.70;;
10059;SDS011;5069;49.306;8.636;2023-07-28T18:13:42;6.97;;;2.60;;
10059;SDS011;5069;49.306;8.636;2023-07-28T18:16:43;3.70;;;2.83;;
10059;SDS011;5069;49.306;8.636;2023-07-28T18:19:45;4.60;;;3.07;;
10059;SDS011;5069;49.306;8.636;2023-07-28T18:22:46;4.30;;;2.70;;
10059;SDS011;5069;49.306;8.636;2023-07-28T18:25:49;4.00;;;2.57;;
10059;SDS011;5069;49.306;8.636;2023-07-28T18:28:51;6.97;;;2.80;;
10059;SDS011;5069;49.306;8.636;2023-07-28T18:31:52;3.50;;;2.80;;
10059;SDS011;5069;49.306;8.636;2023-07-28T18:34:53;3.20;;;2.90;;
10059;SDS011;5069;49.306;8.636;2023-07-28T18:37:55;3.13;;;2.70;;
10059;SDS011;5069;49.306;8.636;2023-07-28T18:40:56;3.97;;;3.00;;
10059;SDS011;5069;49.306;8.636;2023-07-28T18:43:58;5.13;;;2.57;;
10059;SDS011;5069;49.306;8.636;2023-07-28T18:47:00;5.33;;;2.60;;
10059;SDS011;5069;49.306;8.636;2023-07-28T18:50:01;3.23;;;2.60;;